sensor_id;sensor_type;location;lat;lon;timestamp;pressure;altitude;pressure_sealevel;temperature
8362;BMP180;4218;48.326;14.304;2023-06-04T00:01:37;98490.00;;;13.70
8362;BMP180;4218;48.326;14.304;2023-06-04T00:04:02;98492.00;;;13.70
8362;BMP180;4218;48.326;14.304;2023-06-04T00:06:27;98491.00;;;13.60
8362;BMP180;4218;48.326;14.304;2023-06-04T00:08:53;98493.00;;;13.70
8362;BMP180;4218;48.326;14.304;2023-06-04T00:11:18;98486.00;;;13.70
8362;BMP180;4218;48.326;14.304;2023-06-04T00:13:45;98489.00;;;13.90
8362;BMP180;4218;48.326;14.304;2023-06-04T00:16:10;98483.00;;;13.80
8362;BMP180;4218;48.326;14.304;2023-06-04T00:18:36;98488.00;;;13.70
8362;BMP180;4218;48.326;14.304;2023-06-04T00:21:01;98474.00;;;13.60
8362;BMP180;4218;48.326;14.304;2023-06-04T00:23:26;98483.00;;;13.70
8362;BMP180;4218;48.326;14.304;2023-06-04T00:25:52;98481.00;;;13.40
8362;BMP180;4218;48.326;14.304;2023-06-04T00:28:17;98484.00;;;13.20
8362;BMP180;4218;48.326;14.304;2023-06-04T00:30:43;98486.00;;;13.20
8362;BMP180;4218;48.326;14.304;2023-06-04T00:33:08;98480.00;;;13.20
8362;BMP180;4218;48.326;14.304;2023-06-04T00:35:33;98471.00;;;13.30
8362;BMP180;4218;48.326;14.304;2023-06-04T00:37:59;98477.00;;;13.40
8362;BMP180;4218;48.326;14.304;2023-06-04T00:40:24;98475.00;;;13.30
8362;BMP180;4218;48.326;14.304;2023-06-04T00:42:50;98466.00;;;13.10
8362;BMP180;4218;48.326;14.304;2023-06-04T00:45:15;98473.00;;;13.20
8362;BMP180;4218;48.326;14.304;2023-06-04T00:47:43;98481.00;;;13.40
8362;BMP180;4218;48.326;14.304;2023-06-04T00:50:10;98472.00;;;13.40
8362;BMP180;4218;48.326;14.304;2023-06-04T00:52:36;98464.00;;;13.00
8362;BMP180;4218;48.326;14.304;2023-06-04T00:55:02;98468.00;;;12.90
8362;BMP180;4218;48.326;14.304;2023-06-04T00:57:27;98474.00;;;12.90
8362;BMP180;4218;48.326;14.304;2023-06-04T00:59:53;98469.00;;;12.90
8362;BMP180;4218;48.326;14.304;2023-06-04T01:02:21;98465.00;;;13.00
8362;BMP180;4218;48.326;14.304;2023-06-04T01:07:21;98462.00;;;13.00
8362;BMP180;4218;48.326;14.304;2023-06-04T01:09:47;98469.00;;;12.90
8362;BMP180;4218;48.326;14.304;2023-06-04T01:12:12;98480.00;;;12.80
8362;BMP180;4218;48.326;14.304;2023-06-04T01:14:38;98464.00;;;12.80
8362;BMP180;4218;48.326;14.304;2023-06-04T01:17:20;98464.00;;;12.90
8362;BMP180;4218;48.326;14.304;2023-06-04T01:25:37;98455.00;;;13.30
8362;BMP180;4218;48.326;14.304;2023-06-04T01:28:08;98465.00;;;13.30
8362;BMP180;4218;48.326;14.304;2023-06-04T01:30:37;98466.00;;;13.30
8362;BMP180;4218;48.326;14.304;2023-06-04T01:33:18;98469.00;;;13.30
8362;BMP180;4218;48.326;14.304;2023-06-04T01:35:44;98465.00;;;13.30
8362;BMP180;4218;48.326;14.304;2023-06-04T01:38:10;98469.00;;;13.30
8362;BMP180;4218;48.326;14.304;2023-06-04T01:40:35;98477.00;;;13.70
8362;BMP180;4218;48.326;14.304;2023-06-04T01:43:01;98465.00;;;13.70
8362;BMP180;4218;48.326;14.304;2023-06-04T01:45:27;98479.00;;;14.00
8362;BMP180;4218;48.326;14.304;2023-06-04T01:47:53;98472.00;;;13.70
8362;BMP180;4218;48.326;14.304;2023-06-04T01:50:20;98468.00;;;13.60
8362;BMP180;4218;48.326;14.304;2023-06-04T01:52:45;98457.00;;;13.60
8362;BMP180;4218;48.326;14.304;2023-06-04T01:55:12;98475.00;;;13.50
8362;BMP180;4218;48.326;14.304;2023-06-04T01:57:39;98457.00;;;13.50
8362;BMP180;4218;48.326;14.304;2023-06-04T02:00:06;98456.00;;;13.40
8362;BMP180;4218;48.326;14.304;2023-06-04T02:02:34;98459.00;;;13.40
8362;BMP180;4218;48.326;14.304;2023-06-04T02:05:03;98471.00;;;13.30
8362;BMP180;4218;48.326;14.304;2023-06-04T02:07:28;98473.00;;;13.30
8362;BMP180;4218;48.326;14.304;2023-06-04T02:09:54;98466.00;;;13.40
8362;BMP180;4218;48.326;14.304;2023-06-04T02:12:19;98463.00;;;13.40
8362;BMP180;4218;48.326;14.304;2023-06-04T02:14:45;98477.00;;;13.50
8362;BMP180;4218;48.326;14.304;2023-06-04T02:17:11;98466.00;;;13.40
8362;BMP180;4218;48.326;14.304;2023-06-04T02:19:44;98471.00;;;13.30
8362;BMP180;4218;48.326;14.304;2023-06-04T02:22:13;98462.00;;;13.30
8362;BMP180;4218;48.326;14.304;2023-06-04T02:24:38;98473.00;;;13.30
8362;BMP180;4218;48.326;14.304;2023-06-04T02:27:05;98485.00;;;13.50
8362;BMP180;4218;48.326;14.304;2023-06-04T02:29:31;98484.00;;;13.20
8362;BMP180;4218;48.326;14.304;2023-06-04T02:31:57;98487.00;;;13.10
8362;BMP180;4218;48.326;14.304;2023-06-04T02:34:22;98479.00;;;13.10
8362;BMP180;4218;48.326;14.304;2023-06-04T02:36:48;98467.00;;;13.20
8362;BMP180;4218;48.326;14.304;2023-06-04T02:39:18;98474.00;;;13.10
8362;BMP180;4218;48.326;14.304;2023-06-04T02:41:44;98488.00;;;13.10
8362;BMP180;4218;48.326;14.304;2023-06-04T02:44:09;98481.00;;;12.90
8362;BMP180;4218;48.326;14.304;2023-06-04T02:46:35;98466.00;;;12.90
8362;BMP180;4218;48.326;14.304;2023-06-04T02:49:00;98469.00;;;12.90
8362;BMP180;4218;48.326;14.304;2023-06-04T02:51:26;98465.00;;;12.90
8362;BMP180;4218;48.326;14.304;2023-06-04T02:53:51;98479.00;;;13.00
8362;BMP180;4218;48.326;14.304;2023-06-04T02:56:17;98476.00;;;12.90
8362;BMP180;4218;48.326;14.304;2023-06-04T02:58:55;98478.00;;;12.80
8362;BMP180;4218;48.326;14.304;2023-06-04T03:01:25;98476.00;;;12.90
8362;BMP180;4218;48.326;14.304;2023-06-04T03:03:52;98483.00;;;12.70
8362;BMP180;4218;48.326;14.304;2023-06-04T03:06:18;98482.00;;;12.60
8362;BMP180;4218;48.326;14.304;2023-06-04T03:08:48;98483.00;;;12.60
8362;BMP180;4218;48.326;14.304;2023-06-04T03:11:14;98489.00;;;12.60
8362;BMP180;4218;48.326;14.304;2023-06-04T03:13:39;98479.00;;;12.60
8362;BMP180;4218;48.326;14.304;2023-06-04T03:16:05;98483.00;;;12.70
8362;BMP180;4218;48.326;14.304;2023-06-04T03:18:37;98477.00;;;12.80
8362;BMP180;4218;48.326;14.304;2023-06-04T03:21:06;98484.00;;;12.80
8362;BMP180;4218;48.326;14.304;2023-06-04T03:23:33;98495.00;;;12.80
8362;BMP180;4218;48.326;14.304;2023-06-04T03:26:02;98499.00;;;12.70
8362;BMP180;4218;48.326;14.304;2023-06-04T03:28:29;98496.00;;;12.60
8362;BMP180;4218;48.326;14.304;2023-06-04T03:30:54;98494.00;;;12.90
8362;BMP180;4218;48.326;14.304;2023-06-04T03:33:20;98515.00;;;13.20
8362;BMP180;4218;48.326;14.304;2023-06-04T03:35:45;98507.00;;;12.90
8362;BMP180;4218;48.326;14.304;2023-06-04T03:38:11;98505.00;;;12.60
8362;BMP180;4218;48.326;14.304;2023-06-04T03:40:36;98515.00;;;12.70
8362;BMP180;4218;48.326;14.304;2023-06-04T03:43:02;98517.00;;;12.70
8362;BMP180;4218;48.326;14.304;2023-06-04T03:45:29;98514.00;;;12.80
8362;BMP180;4218;48.326;14.304;2023-06-04T03:47:54;98520.00;;;12.80
8362;BMP180;4218;48.326;14.304;2023-06-04T03:50:20;98519.00;;;12.60
8362;BMP180;4218;48.326;14.304;2023-06-04T03:52:45;98529.00;;;12.70
8362;BMP180;4218;48.326;14.304;2023-06-04T03:55:11;98530.00;;;12.80
8362;BMP180;4218;48.326;14.304;2023-06-04T03:57:36;98529.00;;;12.50
8362;BMP180;4218;48.326;14.304;2023-06-04T04:00:05;98527.00;;;12.40
8362;BMP180;4218;48.326;14.304;2023-06-04T04:02:31;98523.00;;;12.40
8362;BMP180;4218;48.326;14.304;2023-06-04T04:04:56;98526.00;;;12.40
8362;BMP180;4218;48.326;14.304;2023-06-04T04:07:22;98524.00;;;12.40
8362;BMP180;4218;48.326;14.304;2023-06-04T04:09:48;98520.00;;;12.50
8362;BMP180;4218;48.326;14.304;2023-06-04T04:12:13;98524.00;;;12.50
8362;BMP180;4218;48.326;14.304;2023-06-04T04:14:38;98526.00;;;12.50
8362;BMP180;4218;48.326;14.304;2023-06-04T04:17:04;98515.00;;;12.60
8362;BMP180;4218;48.326;14.304;2023-06-04T04:19:29;98530.00;;;12.60
8362;BMP180;4218;48.326;14.304;2023-06-04T04:21:55;98529.00;;;12.60
8362;BMP180;4218;48.326;14.304;2023-06-04T04:24:23;98547.00;;;12.60
8362;BMP180;4218;48.326;14.304;2023-06-04T04:26:49;98545.00;;;12.50
8362;BMP180;4218;48.326;14.304;2023-06-04T04:29:18;98551.00;;;12.70
8362;BMP180;4218;48.326;14.304;2023-06-04T04:31:48;98549.00;;;12.80
8362;BMP180;4218;48.326;14.304;2023-06-04T04:34:14;98545.00;;;12.90
8362;BMP180;4218;48.326;14.304;2023-06-04T04:36:40;98545.00;;;13.10
8362;BMP180;4218;48.326;14.304;2023-06-04T04:39:05;98540.00;;;13.10
8362;BMP180;4218;48.326;14.304;2023-06-04T04:41:31;98538.00;;;13.30
8362;BMP180;4218;48.326;14.304;2023-06-04T04:44:03;98540.00;;;13.50
8362;BMP180;4218;48.326;14.304;2023-06-04T04:46:29;98526.00;;;13.60
8362;BMP180;4218;48.326;14.304;2023-06-04T04:48:55;98540.00;;;13.80
8362;BMP180;4218;48.326;14.304;2023-06-04T04:51:21;98535.00;;;13.70
8362;BMP180;4218;48.326;14.304;2023-06-04T04:53:46;98536.00;;;13.80
8362;BMP180;4218;48.326;14.304;2023-06-04T04:56:11;98540.00;;;13.80
8362;BMP180;4218;48.326;14.304;2023-06-04T04:58:37;98541.00;;;13.80
8362;BMP180;4218;48.326;14.304;2023-06-04T05:01:02;98542.00;;;13.80
8362;BMP180;4218;48.326;14.304;2023-06-04T05:03:28;98543.00;;;13.90
8362;BMP180;4218;48.326;14.304;2023-06-04T05:05:53;98542.00;;;14.00
8362;BMP180;4218;48.326;14.304;2023-06-04T05:08:18;98546.00;;;14.20
8362;BMP180;4218;48.326;14.304;2023-06-04T05:10:43;98551.00;;;14.20
8362;BMP180;4218;48.326;14.304;2023-06-04T05:13:09;98554.00;;;14.10
8362;BMP180;4218;48.326;14.304;2023-06-04T05:15:36;98555.00;;;14.00
8362;BMP180;4218;48.326;14.304;2023-06-04T05:18:02;98559.00;;;14.10
8362;BMP180;4218;48.326;14.304;2023-06-04T05:20:29;98562.00;;;14.20
8362;BMP180;4218;48.326;14.304;2023-06-04T05:22:55;98563.00;;;14.20
8362;BMP180;4218;48.326;14.304;2023-06-04T05:25:20;98557.00;;;14.60
8362;BMP180;4218;48.326;14.304;2023-06-04T05:27:46;98565.00;;;14.90
8362;BMP180;4218;48.326;14.304;2023-06-04T05:30:14;98567.00;;;14.90
8362;BMP180;4218;48.326;14.304;2023-06-04T05:32:40;98568.00;;;15.20
8362;BMP180;4218;48.326;14.304;2023-06-04T05:35:06;98573.00;;;15.20
8362;BMP180;4218;48.326;14.304;2023-06-04T05:37:33;98575.00;;;15.20
8362;BMP180;4218;48.326;14.304;2023-06-04T05:39:59;98565.00;;;15.20
8362;BMP180;4218;48.326;14.304;2023-06-04T05:42:25;98579.00;;;15.20
8362;BMP180;4218;48.326;14.304;2023-06-04T05:44:50;98583.00;;;15.30
8362;BMP180;4218;48.326;14.304;2023-06-04T05:47:16;98588.00;;;15.70
8362;BMP180;4218;48.326;14.304;2023-06-04T05:49:44;98578.00;;;15.80
8362;BMP180;4218;48.326;14.304;2023-06-04T05:52:12;98579.00;;;15.80
8362;BMP180;4218;48.326;14.304;2023-06-04T05:54:38;98574.00;;;15.60
8362;BMP180;4218;48.326;14.304;2023-06-04T05:57:04;98578.00;;;15.60
8362;BMP180;4218;48.326;14.304;2023-06-04T05:59:30;98576.00;;;15.30
8362;BMP180;4218;48.326;14.304;2023-06-04T06:01:56;98576.00;;;15.30
8362;BMP180;4218;48.326;14.304;2023-06-04T06:04:22;98578.00;;;15.80
8362;BMP180;4218;48.326;14.304;2023-06-04T06:06:47;98578.00;;;16.10
8362;BMP180;4218;48.326;14.304;2023-06-04T06:09:14;98579.00;;;16.10
8362;BMP180;4218;48.326;14.304;2023-06-04T06:11:40;98574.00;;;15.90
8362;BMP180;4218;48.326;14.304;2023-06-04T06:14:06;98581.00;;;15.90
8362;BMP180;4218;48.326;14.304;2023-06-04T06:16:31;98578.00;;;16.10
8362;BMP180;4218;48.326;14.304;2023-06-04T06:18:58;98583.00;;;16.40
8362;BMP180;4218;48.326;14.304;2023-06-04T06:21:23;98580.00;;;16.40
8362;BMP180;4218;48.326;14.304;2023-06-04T06:23:48;98575.00;;;16.40
8362;BMP180;4218;48.326;14.304;2023-06-04T06:26:15;98580.00;;;16.00
8362;BMP180;4218;48.326;14.304;2023-06-04T06:28:41;98574.00;;;16.00
8362;BMP180;4218;48.326;14.304;2023-06-04T06:31:06;98578.00;;;16.10
8362;BMP180;4218;48.326;14.304;2023-06-04T06:33:32;98580.00;;;16.20
8362;BMP180;4218;48.326;14.304;2023-06-04T06:35:57;98586.00;;;16.50
8362;BMP180;4218;48.326;14.304;2023-06-04T06:38:26;98586.00;;;16.80
8362;BMP180;4218;48.326;14.304;2023-06-04T06:40:52;98581.00;;;16.90
8362;BMP180;4218;48.326;14.304;2023-06-04T06:43:17;98595.00;;;17.10
8362;BMP180;4218;48.326;14.304;2023-06-04T06:45:42;98597.00;;;16.90
8362;BMP180;4218;48.326;14.304;2023-06-04T06:48:08;98598.00;;;16.50
8362;BMP180;4218;48.326;14.304;2023-06-04T06:50:33;98589.00;;;16.50
8362;BMP180;4218;48.326;14.304;2023-06-04T06:53:01;98593.00;;;16.80
8362;BMP180;4218;48.326;14.304;2023-06-04T06:55:26;98594.00;;;17.20
8362;BMP180;4218;48.326;14.304;2023-06-04T06:57:52;98595.00;;;16.90
8362;BMP180;4218;48.326;14.304;2023-06-04T07:00:17;98593.00;;;16.70
8362;BMP180;4218;48.326;14.304;2023-06-04T07:02:44;98586.00;;;17.10
8362;BMP180;4218;48.326;14.304;2023-06-04T07:05:10;98595.00;;;17.40
8362;BMP180;4218;48.326;14.304;2023-06-04T07:07:36;98590.00;;;17.50
8362;BMP180;4218;48.326;14.304;2023-06-04T07:10:01;98595.00;;;17.60
8362;BMP180;4218;48.326;14.304;2023-06-04T07:12:29;98585.00;;;17.90
8362;BMP180;4218;48.326;14.304;2023-06-04T07:14:54;98584.00;;;17.60
8362;BMP180;4218;48.326;14.304;2023-06-04T07:17:21;98605.00;;;17.50
8362;BMP180;4218;48.326;14.304;2023-06-04T07:19:46;98601.00;;;17.60
8362;BMP180;4218;48.326;14.304;2023-06-04T07:22:12;98600.00;;;17.90
8362;BMP180;4218;48.326;14.304;2023-06-04T07:24:37;98601.00;;;18.10
8362;BMP180;4218;48.326;14.304;2023-06-04T07:27:10;98594.00;;;18.20
8362;BMP180;4218;48.326;14.304;2023-06-04T07:29:35;98596.00;;;18.20
8362;BMP180;4218;48.326;14.304;2023-06-04T07:32:01;98600.00;;;18.20
8362;BMP180;4218;48.326;14.304;2023-06-04T07:34:26;98594.00;;;18.30
8362;BMP180;4218;48.326;14.304;2023-06-04T07:36:52;98588.00;;;18.30
8362;BMP180;4218;48.326;14.304;2023-06-04T07:39:17;98602.00;;;18.50
8362;BMP180;4218;48.326;14.304;2023-06-04T07:41:43;98598.00;;;18.70
8362;BMP180;4218;48.326;14.304;2023-06-04T07:44:08;98606.00;;;18.90
8362;BMP180;4218;48.326;14.304;2023-06-04T07:46:33;98596.00;;;18.50
8362;BMP180;4218;48.326;14.304;2023-06-04T07:48:59;98603.00;;;18.80
8362;BMP180;4218;48.326;14.304;2023-06-04T07:51:24;98596.00;;;18.30
8362;BMP180;4218;48.326;14.304;2023-06-04T07:53:50;98604.00;;;18.50
8362;BMP180;4218;48.326;14.304;2023-06-04T07:56:16;98594.00;;;18.70
8362;BMP180;4218;48.326;14.304;2023-06-04T07:58:41;98606.00;;;18.70
8362;BMP180;4218;48.326;14.304;2023-06-04T08:01:06;98603.00;;;18.90
8362;BMP180;4218;48.326;14.304;2023-06-04T08:03:32;98605.00;;;18.90
8362;BMP180;4218;48.326;14.304;2023-06-04T08:05:57;98597.00;;;19.00
8362;BMP180;4218;48.326;14.304;2023-06-04T08:08:23;98605.00;;;19.20
8362;BMP180;4218;48.326;14.304;2023-06-04T08:10:48;98607.00;;;19.20
8362;BMP180;4218;48.326;14.304;2023-06-04T08:13:14;98598.00;;;19.20
8362;BMP180;4218;48.326;14.304;2023-06-04T08:15:39;98600.00;;;18.90
8362;BMP180;4218;48.326;14.304;2023-06-04T08:18:05;98608.00;;;19.10
8362;BMP180;4218;48.326;14.304;2023-06-04T08:20:30;98615.00;;;19.20
8362;BMP180;4218;48.326;14.304;2023-06-04T08:22:56;98614.00;;;19.20
8362;BMP180;4218;48.326;14.304;2023-06-04T08:25:21;98622.00;;;19.10
8362;BMP180;4218;48.326;14.304;2023-06-04T08:27:47;98622.00;;;19.10
8362;BMP180;4218;48.326;14.304;2023-06-04T08:30:12;98614.00;;;19.20
8362;BMP180;4218;48.326;14.304;2023-06-04T08:32:37;98616.00;;;19.20
8362;BMP180;4218;48.326;14.304;2023-06-04T08:35:03;98619.00;;;19.40
8362;BMP180;4218;48.326;14.304;2023-06-04T08:37:30;98618.00;;;19.60
8362;BMP180;4218;48.326;14.304;2023-06-04T08:39:55;98621.00;;;19.70
8362;BMP180;4218;48.326;14.304;2023-06-04T08:42:31;98620.00;;;19.60
8362;BMP180;4218;48.326;14.304;2023-06-04T08:44:59;98632.00;;;19.60
8362;BMP180;4218;48.326;14.304;2023-06-04T08:47:25;98623.00;;;19.50
8362;BMP180;4218;48.326;14.304;2023-06-04T08:49:52;98629.00;;;19.40
8362;BMP180;4218;48.326;14.304;2023-06-04T08:52:17;98630.00;;;19.50
8362;BMP180;4218;48.326;14.304;2023-06-04T08:54:49;98636.00;;;19.60
8362;BMP180;4218;48.326;14.304;2023-06-04T08:57:18;98627.00;;;19.70
8362;BMP180;4218;48.326;14.304;2023-06-04T08:59:48;98638.00;;;19.90
8362;BMP180;4218;48.326;14.304;2023-06-04T09:02:14;98629.00;;;20.00
8362;BMP180;4218;48.326;14.304;2023-06-04T09:04:40;98630.00;;;20.00
8362;BMP180;4218;48.326;14.304;2023-06-04T09:07:06;98629.00;;;20.00
8362;BMP180;4218;48.326;14.304;2023-06-04T09:09:37;98636.00;;;20.00
8362;BMP180;4218;48.326;14.304;2023-06-04T09:12:03;98635.00;;;20.10
8362;BMP180;4218;48.326;14.304;2023-06-04T09:14:31;98632.00;;;20.00
8362;BMP180;4218;48.326;14.304;2023-06-04T09:16:57;98629.00;;;20.00
8362;BMP180;4218;48.326;14.304;2023-06-04T09:19:24;98629.00;;;20.10
8362;BMP180;4218;48.326;14.304;2023-06-04T09:21:57;98637.00;;;20.10
8362;BMP180;4218;48.326;14.304;2023-06-04T09:24:24;98625.00;;;20.10
8362;BMP180;4218;48.326;14.304;2023-06-04T09:26:50;98638.00;;;20.10
8362;BMP180;4218;48.326;14.304;2023-06-04T09:29:15;98625.00;;;20.30
8362;BMP180;4218;48.326;14.304;2023-06-04T09:31:41;98626.00;;;20.40
8362;BMP180;4218;48.326;14.304;2023-06-04T09:34:07;98625.00;;;20.40
8362;BMP180;4218;48.326;14.304;2023-06-04T09:36:36;98625.00;;;20.30
8362;BMP180;4218;48.326;14.304;2023-06-04T09:39:03;98623.00;;;20.30
8362;BMP180;4218;48.326;14.304;2023-06-04T09:41:29;98628.00;;;20.40
8362;BMP180;4218;48.326;14.304;2023-06-04T09:44:03;98621.00;;;20.50
8362;BMP180;4218;48.326;14.304;2023-06-04T09:46:30;98623.00;;;20.70
8362;BMP180;4218;48.326;14.304;2023-06-04T09:49:03;98621.00;;;20.80
8362;BMP180;4218;48.326;14.304;2023-06-04T09:51:29;98619.00;;;20.70
8362;BMP180;4218;48.326;14.304;2023-06-04T09:53:57;98629.00;;;20.80
8362;BMP180;4218;48.326;14.304;2023-06-04T09:56:23;98616.00;;;20.80
8362;BMP180;4218;48.326;14.304;2023-06-04T09:58:49;98616.00;;;20.90
8362;BMP180;4218;48.326;14.304;2023-06-04T10:01:15;98609.00;;;21.10
8362;BMP180;4218;48.326;14.304;2023-06-04T10:03:46;98626.00;;;21.20
8362;BMP180;4218;48.326;14.304;2023-06-04T10:06:14;98618.00;;;21.50
8362;BMP180;4218;48.326;14.304;2023-06-04T10:08:42;98617.00;;;21.40
8362;BMP180;4218;48.326;14.304;2023-06-04T10:11:08;98614.00;;;21.60
8362;BMP180;4218;48.326;14.304;2023-06-04T10:13:42;98618.00;;;21.60
8362;BMP180;4218;48.326;14.304;2023-06-04T10:16:11;98617.00;;;21.80
8362;BMP180;4218;48.326;14.304;2023-06-04T10:18:36;98631.00;;;21.90
8362;BMP180;4218;48.326;14.304;2023-06-04T10:21:03;98620.00;;;21.80
8362;BMP180;4218;48.326;14.304;2023-06-04T10:23:30;98620.00;;;21.80
8362;BMP180;4218;48.326;14.304;2023-06-04T10:25:56;98627.00;;;21.70
8362;BMP180;4218;48.326;14.304;2023-06-04T10:28:23;98624.00;;;21.70
8362;BMP180;4218;48.326;14.304;2023-06-04T10:30:51;98621.00;;;21.80
8362;BMP180;4218;48.326;14.304;2023-06-04T10:33:25;98620.00;;;21.90
8362;BMP180;4218;48.326;14.304;2023-06-04T10:35:53;98613.00;;;22.00
8362;BMP180;4218;48.326;14.304;2023-06-04T10:38:20;98613.00;;;22.00
8362;BMP180;4218;48.326;14.304;2023-06-04T10:40:47;98605.00;;;22.10
8362;BMP180;4218;48.326;14.304;2023-06-04T10:43:14;98613.00;;;22.20
8362;BMP180;4218;48.326;14.304;2023-06-04T10:45:41;98610.00;;;22.10
8362;BMP180;4218;48.326;14.304;2023-06-04T10:48:08;98604.00;;;22.10
8362;BMP180;4218;48.326;14.304;2023-06-04T10:50:36;98602.00;;;22.10
8362;BMP180;4218;48.326;14.304;2023-06-04T10:53:12;98613.00;;;22.40
8362;BMP180;4218;48.326;14.304;2023-06-04T10:55:44;98609.00;;;22.30
8362;BMP180;4218;48.326;14.304;2023-06-04T10:58:09;98604.00;;;22.00
8362;BMP180;4218;48.326;14.304;2023-06-04T11:00:38;98606.00;;;22.30
8362;BMP180;4218;48.326;14.304;2023-06-04T11:03:05;98603.00;;;22.50
8362;BMP180;4218;48.326;14.304;2023-06-04T11:05:40;98601.00;;;22.30
8362;BMP180;4218;48.326;14.304;2023-06-04T11:08:06;98603.00;;;22.40
8362;BMP180;4218;48.326;14.304;2023-06-04T11:10:33;98603.00;;;22.50
8362;BMP180;4218;48.326;14.304;2023-06-04T11:12:59;98612.00;;;22.60
8362;BMP180;4218;48.326;14.304;2023-06-04T11:15:25;98597.00;;;22.90
8362;BMP180;4218;48.326;14.304;2023-06-04T11:17:55;98607.00;;;23.00
8362;BMP180;4218;48.326;14.304;2023-06-04T11:20:23;98609.00;;;23.10
8362;BMP180;4218;48.326;14.304;2023-06-04T11:22:56;98607.00;;;23.20
8362;BMP180;4218;48.326;14.304;2023-06-04T11:25:24;98610.00;;;23.30
8362;BMP180;4218;48.326;14.304;2023-06-04T11:27:52;98598.00;;;23.60
8362;BMP180;4218;48.326;14.304;2023-06-04T11:30:18;98596.00;;;23.60
8362;BMP180;4218;48.326;14.304;2023-06-04T11:32:43;98600.00;;;23.70
8362;BMP180;4218;48.326;14.304;2023-06-04T11:35:09;98599.00;;;23.80
8362;BMP180;4218;48.326;14.304;2023-06-04T11:37:36;98591.00;;;23.70
8362;BMP180;4218;48.326;14.304;2023-06-04T11:40:02;98605.00;;;23.80
8362;BMP180;4218;48.326;14.304;2023-06-04T11:42:32;98600.00;;;23.80
8362;BMP180;4218;48.326;14.304;2023-06-04T11:44:58;98600.00;;;23.80
8362;BMP180;4218;48.326;14.304;2023-06-04T11:47:24;98597.00;;;23.50
8362;BMP180;4218;48.326;14.304;2023-06-04T11:49:56;98595.00;;;23.40
8362;BMP180;4218;48.326;14.304;2023-06-04T11:52:21;98591.00;;;23.50
8362;BMP180;4218;48.326;14.304;2023-06-04T11:54:47;98582.00;;;23.60
8362;BMP180;4218;48.326;14.304;2023-06-04T11:57:13;98583.00;;;23.80
8362;BMP180;4218;48.326;14.304;2023-06-04T11:59:38;98586.00;;;24.10
8362;BMP180;4218;48.326;14.304;2023-06-04T12:02:06;98588.00;;;24.20
8362;BMP180;4218;48.326;14.304;2023-06-04T12:04:32;98588.00;;;24.20
8362;BMP180;4218;48.326;14.304;2023-06-04T12:06:58;98581.00;;;24.20
8362;BMP180;4218;48.326;14.304;2023-06-04T12:09:27;98584.00;;;24.20
8362;BMP180;4218;48.326;14.304;2023-06-04T12:12:06;98588.00;;;24.30
8362;BMP180;4218;48.326;14.304;2023-06-04T12:14:32;98571.00;;;24.50
8362;BMP180;4218;48.326;14.304;2023-06-04T12:17:05;98578.00;;;24.40
8362;BMP180;4218;48.326;14.304;2023-06-04T12:19:31;98559.00;;;24.40
8362;BMP180;4218;48.326;14.304;2023-06-04T12:22:04;98569.00;;;24.30
8362;BMP180;4218;48.326;14.304;2023-06-04T12:24:34;98566.00;;;24.60
8362;BMP180;4218;48.326;14.304;2023-06-04T12:27:06;98578.00;;;24.70
8362;BMP180;4218;48.326;14.304;2023-06-04T12:29:32;98568.00;;;24.60
8362;BMP180;4218;48.326;14.304;2023-06-04T12:32:08;98567.00;;;24.90
8362;BMP180;4218;48.326;14.304;2023-06-04T12:34:37;98567.00;;;24.60
8362;BMP180;4218;48.326;14.304;2023-06-04T12:37:03;98561.00;;;24.20
8362;BMP180;4218;48.326;14.304;2023-06-04T12:39:34;98565.00;;;24.10
8362;BMP180;4218;48.326;14.304;2023-06-04T12:42:01;98564.00;;;23.80
8362;BMP180;4218;48.326;14.304;2023-06-04T12:44:27;98557.00;;;23.70
8362;BMP180;4218;48.326;14.304;2023-06-04T12:46:52;98553.00;;;23.60
8362;BMP180;4218;48.326;14.304;2023-06-04T12:49:18;98553.00;;;23.70
8362;BMP180;4218;48.326;14.304;2023-06-04T12:51:43;98551.00;;;23.90
8362;BMP180;4218;48.326;14.304;2023-06-04T12:54:09;98553.00;;;23.90
8362;BMP180;4218;48.326;14.304;2023-06-04T12:56:35;98558.00;;;23.90
8362;BMP180;4218;48.326;14.304;2023-06-04T12:59:00;98559.00;;;23.80
8362;BMP180;4218;48.326;14.304;2023-06-04T13:01:25;98561.00;;;23.80
8362;BMP180;4218;48.326;14.304;2023-06-04T13:03:51;98560.00;;;23.80
8362;BMP180;4218;48.326;14.304;2023-06-04T13:06:17;98560.00;;;24.00
8362;BMP180;4218;48.326;14.304;2023-06-04T13:08:42;98559.00;;;24.20
8362;BMP180;4218;48.326;14.304;2023-06-04T13:11:08;98559.00;;;24.40
8362;BMP180;4218;48.326;14.304;2023-06-04T13:13:35;98560.00;;;24.40
8362;BMP180;4218;48.326;14.304;2023-06-04T13:16:01;98556.00;;;24.50
8362;BMP180;4218;48.326;14.304;2023-06-04T13:18:27;98544.00;;;24.70
8362;BMP180;4218;48.326;14.304;2023-06-04T13:20:52;98554.00;;;24.70
8362;BMP180;4218;48.326;14.304;2023-06-04T13:23:18;98543.00;;;24.60
8362;BMP180;4218;48.326;14.304;2023-06-04T13:25:43;98538.00;;;24.50
8362;BMP180;4218;48.326;14.304;2023-06-04T13:28:09;98539.00;;;24.50
8362;BMP180;4218;48.326;14.304;2023-06-04T13:30:35;98541.00;;;24.60
8362;BMP180;4218;48.326;14.304;2023-06-04T13:33:02;98552.00;;;24.70
8362;BMP180;4218;48.326;14.304;2023-06-04T13:35:27;98540.00;;;24.70
8362;BMP180;4218;48.326;14.304;2023-06-04T13:37:53;98549.00;;;24.50
8362;BMP180;4218;48.326;14.304;2023-06-04T13:40:18;98550.00;;;24.30
8362;BMP180;4218;48.326;14.304;2023-06-04T13:42:45;98542.00;;;24.40
8362;BMP180;4218;48.326;14.304;2023-06-04T13:45:10;98540.00;;;24.50
8362;BMP180;4218;48.326;14.304;2023-06-04T13:47:35;98546.00;;;24.30
8362;BMP180;4218;48.326;14.304;2023-06-04T13:50:01;98548.00;;;24.40
8362;BMP180;4218;48.326;14.304;2023-06-04T13:52:26;98550.00;;;24.00
8362;BMP180;4218;48.326;14.304;2023-06-04T13:54:56;98549.00;;;24.20
8362;BMP180;4218;48.326;14.304;2023-06-04T13:57:21;98546.00;;;24.30
8362;BMP180;4218;48.326;14.304;2023-06-04T13:59:48;98544.00;;;24.10
8362;BMP180;4218;48.326;14.304;2023-06-04T14:02:13;98544.00;;;23.70
8362;BMP180;4218;48.326;14.304;2023-06-04T14:04:39;98543.00;;;23.60
8362;BMP180;4218;48.326;14.304;2023-06-04T14:07:04;98545.00;;;23.50
8362;BMP180;4218;48.326;14.304;2023-06-04T14:09:31;98538.00;;;23.40
8362;BMP180;4218;48.326;14.304;2023-06-04T14:11:56;98538.00;;;23.60
8362;BMP180;4218;48.326;14.304;2023-06-04T14:14:22;98544.00;;;23.60
8362;BMP180;4218;48.326;14.304;2023-06-04T14:16:48;98548.00;;;23.50
8362;BMP180;4218;48.326;14.304;2023-06-04T14:19:13;98551.00;;;23.40
8362;BMP180;4218;48.326;14.304;2023-06-04T14:21:39;98551.00;;;23.40
8362;BMP180;4218;48.326;14.304;2023-06-04T14:24:05;98542.00;;;23.40
8362;BMP180;4218;48.326;14.304;2023-06-04T14:26:30;98539.00;;;23.40